sensor_id;sensor_type;location;lat;lon;timestamp;P1;durP1;ratioP1;P2;durP2;ratioP2
8337;SDS011;4206;48.634;9.516;2023-01-29T00:01:53;11.17;;;7.63;;
8337;SDS011;4206;48.634;9.516;2023-01-29T00:04:20;15.30;;;8.27;;
8337;SDS011;4206;48.634;9.516;2023-01-29T00:06:46;11.97;;;7.47;;
8337;SDS011;4206;48.634;9.516;2023-01-29T00:09:11;9.43;;;7.33;;
8337;SDS011;4206;48.634;9.516;2023-01-29T00:11:37;12.67;;;8.43;;
8337;SDS011;4206;48.634;9.516;2023-01-29T00:14:03;11.70;;;7.73;;
8337;SDS011;4206;48.634;9.516;2023-01-29T00:16:29;11.30;;;8.43;;
8337;SDS011;4206;48.634;9.516;2023-01-29T00:18:55;13.37;;;8.47;;
8337;SDS011;4206;48.634;9.516;2023-01-29T00:21:21;12.50;;;9.20;;
8337;SDS011;4206;48.634;9.516;2023-01-29T00:23:48;11.73;;;8.73;;
8337;SDS011;4206;48.634;9.516;2023-01-29T00:26:15;10.47;;;7.23;;
8337;SDS011;4206;48.634;9.516;2023-01-29T00:28:41;12.63;;;8.70;;
8337;SDS011;4206;48.634;9.516;2023-01-29T00:33:34;14.20;;;8.40;;
8337;SDS011;4206;48.634;9.516;2023-01-29T00:36:04;10.27;;;7.70;;
8337;SDS011;4206;48.634;9.516;2023-01-29T00:38:31;12.50;;;8.20;;
8337;SDS011;4206;48.634;9.516;2023-01-29T00:41:04;12.80;;;8.17;;
8337;SDS011;4206;48.634;9.516;2023-01-29T00:43:46;11.50;;;8.50;;
8337;SDS011;4206;48.634;9.516;2023-01-29T00:46:27;11.77;;;7.80;;
8337;SDS011;4206;48.634;9.516;2023-01-29T00:48:53;12.77;;;7.70;;
8337;SDS011;4206;48.634;9.516;2023-01-29T00:51:19;13.00;;;8.60;;
8337;SDS011;4206;48.634;9.516;2023-01-29T00:53:44;12.50;;;8.93;;
8337;SDS011;4206;48.634;9.516;2023-01-29T00:56:10;11.70;;;8.20;;
8337;SDS011;4206;48.634;9.516;2023-01-29T00:58:35;11.57;;;7.90;;
8337;SDS011;4206;48.634;9.516;2023-01-29T01:01:01;14.50;;;9.17;;
8337;SDS011;4206;48.634;9.516;2023-01-29T01:03:27;11.27;;;7.70;;
8337;SDS011;4206;48.634;9.516;2023-01-29T01:06:04;13.37;;;9.03;;
8337;SDS011;4206;48.634;9.516;2023-01-29T01:08:31;12.53;;;8.70;;
8337;SDS011;4206;48.634;9.516;2023-01-29T01:11:17;11.90;;;8.60;;
8337;SDS011;4206;48.634;9.516;2023-01-29T01:13:42;12.47;;;8.63;;
8337;SDS011;4206;48.634;9.516;2023-01-29T01:16:10;10.07;;;7.53;;
8337;SDS011;4206;48.634;9.516;2023-01-29T01:18:36;11.53;;;7.50;;
8337;SDS011;4206;48.634;9.516;2023-01-29T01:21:02;12.80;;;7.07;;
8337;SDS011;4206;48.634;9.516;2023-01-29T01:23:27;10.53;;;8.50;;
8337;SDS011;4206;48.634;9.516;2023-01-29T01:25:53;9.53;;;7.67;;
8337;SDS011;4206;48.634;9.516;2023-01-29T01:28:19;9.90;;;7.33;;
8337;SDS011;4206;48.634;9.516;2023-01-29T01:30:45;10.87;;;7.50;;
8337;SDS011;4206;48.634;9.516;2023-01-29T01:33:11;9.20;;;7.40;;
8337;SDS011;4206;48.634;9.516;2023-01-29T01:35:37;9.83;;;7.90;;
8337;SDS011;4206;48.634;9.516;2023-01-29T01:38:03;11.03;;;7.57;;
8337;SDS011;4206;48.634;9.516;2023-01-29T01:40:29;11.37;;;7.43;;
8337;SDS011;4206;48.634;9.516;2023-01-29T01:42:56;10.77;;;7.97;;
8337;SDS011;4206;48.634;9.516;2023-01-29T01:45:31;13.23;;;8.63;;
8337;SDS011;4206;48.634;9.516;2023-01-29T01:50:30;14.27;;;7.40;;
8337;SDS011;4206;48.634;9.516;2023-01-29T01:52:59;9.67;;;6.80;;
8337;SDS011;4206;48.634;9.516;2023-01-29T01:55:31;10.53;;;7.73;;
8337;SDS011;4206;48.634;9.516;2023-01-29T01:58:05;10.80;;;7.90;;
8337;SDS011;4206;48.634;9.516;2023-01-29T02:00:36;10.67;;;7.23;;
8337;SDS011;4206;48.634;9.516;2023-01-29T02:03:03;11.03;;;7.17;;
8337;SDS011;4206;48.634;9.516;2023-01-29T02:05:46;12.80;;;7.90;;
8337;SDS011;4206;48.634;9.516;2023-01-29T02:08:33;10.83;;;7.20;;
8337;SDS011;4206;48.634;9.516;2023-01-29T02:11:21;10.20;;;7.73;;
8337;SDS011;4206;48.634;9.516;2023-01-29T02:13:47;11.00;;;7.60;;
8337;SDS011;4206;48.634;9.516;2023-01-29T02:16:17;10.50;;;7.30;;
8337;SDS011;4206;48.634;9.516;2023-01-29T02:18:44;10.83;;;7.53;;
8337;SDS011;4206;48.634;9.516;2023-01-29T02:29:22;8.57;;;5.97;;
8337;SDS011;4206;48.634;9.516;2023-01-29T02:37:31;11.60;;;7.47;;
8337;SDS011;4206;48.634;9.516;2023-01-29T02:40:04;8.43;;;6.60;;
8337;SDS011;4206;48.634;9.516;2023-01-29T02:42:40;11.67;;;7.37;;
8337;SDS011;4206;48.634;9.516;2023-01-29T02:45:16;8.40;;;6.77;;
8337;SDS011;4206;48.634;9.516;2023-01-29T02:47:48;9.87;;;7.13;;
8337;SDS011;4206;48.634;9.516;2023-01-29T02:53:09;10.47;;;7.53;;
8337;SDS011;4206;48.634;9.516;2023-01-29T02:55:41;11.87;;;7.67;;
8337;SDS011;4206;48.634;9.516;2023-01-29T03:00:47;12.40;;;6.77;;
8337;SDS011;4206;48.634;9.516;2023-01-29T03:08:46;11.40;;;7.70;;
8337;SDS011;4206;48.634;9.516;2023-01-29T03:11:23;9.07;;;6.70;;
8337;SDS011;4206;48.634;9.516;2023-01-29T03:13:53;11.70;;;7.10;;
8337;SDS011;4206;48.634;9.516;2023-01-29T03:16:28;10.07;;;7.40;;
8337;SDS011;4206;48.634;9.516;2023-01-29T03:19:03;13.87;;;7.23;;
8337;SDS011;4206;48.634;9.516;2023-01-29T03:21:43;10.40;;;7.10;;
8337;SDS011;4206;48.634;9.516;2023-01-29T03:24:25;8.10;;;5.73;;
8337;SDS011;4206;48.634;9.516;2023-01-29T03:27:10;8.40;;;6.53;;
8337;SDS011;4206;48.634;9.516;2023-01-29T03:29:53;8.70;;;6.00;;
8337;SDS011;4206;48.634;9.516;2023-01-29T03:32:36;10.33;;;7.40;;
8337;SDS011;4206;48.634;9.516;2023-01-29T03:35:04;8.03;;;6.67;;
8337;SDS011;4206;48.634;9.516;2023-01-29T03:40:07;8.53;;;5.93;;
8337;SDS011;4206;48.634;9.516;2023-01-29T03:42:37;8.47;;;5.87;;
8337;SDS011;4206;48.634;9.516;2023-01-29T03:50:55;6.50;;;4.93;;
8337;SDS011;4206;48.634;9.516;2023-01-29T03:56:40;6.50;;;5.60;;
8337;SDS011;4206;48.634;9.516;2023-01-29T03:59:20;8.70;;;6.10;;
8337;SDS011;4206;48.634;9.516;2023-01-29T04:01:49;8.20;;;5.90;;
8337;SDS011;4206;48.634;9.516;2023-01-29T04:04:23;7.20;;;5.30;;
8337;SDS011;4206;48.634;9.516;2023-01-29T04:06:53;7.70;;;5.97;;
8337;SDS011;4206;48.634;9.516;2023-01-29T04:11:59;7.10;;;5.10;;
8337;SDS011;4206;48.634;9.516;2023-01-29T04:14:28;9.43;;;6.00;;
8337;SDS011;4206;48.634;9.516;2023-01-29T04:16:56;8.23;;;6.03;;
8337;SDS011;4206;48.634;9.516;2023-01-29T04:19:27;8.20;;;5.53;;
8337;SDS011;4206;48.634;9.516;2023-01-29T04:21:58;9.63;;;6.13;;
8337;SDS011;4206;48.634;9.516;2023-01-29T04:24:30;8.70;;;6.10;;
8337;SDS011;4206;48.634;9.516;2023-01-29T04:27:04;8.57;;;5.60;;
8337;SDS011;4206;48.634;9.516;2023-01-29T04:38:05;8.67;;;5.17;;
8337;SDS011;4206;48.634;9.516;2023-01-29T04:40:50;6.30;;;5.40;;
8337;SDS011;4206;48.634;9.516;2023-01-29T04:43:29;6.40;;;5.27;;
8337;SDS011;4206;48.634;9.516;2023-01-29T04:48:56;7.67;;;5.40;;
8337;SDS011;4206;48.634;9.516;2023-01-29T04:59:41;7.70;;;4.90;;
8337;SDS011;4206;48.634;9.516;2023-01-29T05:02:12;7.63;;;5.40;;
8337;SDS011;4206;48.634;9.516;2023-01-29T05:04:38;7.87;;;5.83;;
8337;SDS011;4206;48.634;9.516;2023-01-29T05:07:06;7.80;;;5.47;;
8337;SDS011;4206;48.634;9.516;2023-01-29T05:09:38;8.53;;;5.50;;
8337;SDS011;4206;48.634;9.516;2023-01-29T05:12:06;7.87;;;5.30;;
8337;SDS011;4206;48.634;9.516;2023-01-29T05:14:34;7.77;;;5.87;;
8337;SDS011;4206;48.634;9.516;2023-01-29T05:17:04;8.60;;;6.30;;
8337;SDS011;4206;48.634;9.516;2023-01-29T05:19:36;7.97;;;5.70;;
8337;SDS011;4206;48.634;9.516;2023-01-29T05:22:03;7.70;;;5.33;;
8337;SDS011;4206;48.634;9.516;2023-01-29T05:24:30;8.17;;;5.17;;
8337;SDS011;4206;48.634;9.516;2023-01-29T05:26:55;7.40;;;5.30;;
8337;SDS011;4206;48.634;9.516;2023-01-29T05:29:37;6.20;;;4.73;;
8337;SDS011;4206;48.634;9.516;2023-01-29T05:32:06;6.93;;;5.07;;
8337;SDS011;4206;48.634;9.516;2023-01-29T05:34:32;6.57;;;4.30;;
8337;SDS011;4206;48.634;9.516;2023-01-29T05:36:58;6.07;;;4.33;;
8337;SDS011;4206;48.634;9.516;2023-01-29T05:39:24;8.50;;;5.80;;
8337;SDS011;4206;48.634;9.516;2023-01-29T05:41:49;9.43;;;5.70;;
8337;SDS011;4206;48.634;9.516;2023-01-29T05:44:15;9.03;;;5.17;;
8337;SDS011;4206;48.634;9.516;2023-01-29T05:46:41;7.97;;;5.57;;
8337;SDS011;4206;48.634;9.516;2023-01-29T05:49:07;10.20;;;5.90;;
8337;SDS011;4206;48.634;9.516;2023-01-29T05:51:33;7.73;;;5.10;;
8337;SDS011;4206;48.634;9.516;2023-01-29T05:53:59;7.70;;;5.27;;
8337;SDS011;4206;48.634;9.516;2023-01-29T05:56:24;7.03;;;5.03;;
8337;SDS011;4206;48.634;9.516;2023-01-29T05:58:50;10.97;;;5.47;;
8337;SDS011;4206;48.634;9.516;2023-01-29T06:01:17;10.77;;;6.40;;
8337;SDS011;4206;48.634;9.516;2023-01-29T06:03:44;9.70;;;5.50;;
8337;SDS011;4206;48.634;9.516;2023-01-29T06:06:11;7.93;;;4.87;;
8337;SDS011;4206;48.634;9.516;2023-01-29T06:08:37;9.50;;;6.00;;
8337;SDS011;4206;48.634;9.516;2023-01-29T06:11:05;9.13;;;5.90;;
8337;SDS011;4206;48.634;9.516;2023-01-29T06:13:31;8.70;;;5.40;;
8337;SDS011;4206;48.634;9.516;2023-01-29T06:15:57;8.07;;;5.13;;
8337;SDS011;4206;48.634;9.516;2023-01-29T06:18:23;10.10;;;5.47;;
8337;SDS011;4206;48.634;9.516;2023-01-29T06:20:49;7.40;;;4.90;;
8337;SDS011;4206;48.634;9.516;2023-01-29T06:23:15;8.30;;;5.10;;
8337;SDS011;4206;48.634;9.516;2023-01-29T06:25:41;6.33;;;4.97;;
8337;SDS011;4206;48.634;9.516;2023-01-29T06:28:07;7.63;;;5.93;;
8337;SDS011;4206;48.634;9.516;2023-01-29T06:30:33;7.20;;;5.07;;
8337;SDS011;4206;48.634;9.516;2023-01-29T06:32:59;9.20;;;4.27;;
8337;SDS011;4206;48.634;9.516;2023-01-29T06:35:26;8.27;;;5.00;;
8337;SDS011;4206;48.634;9.516;2023-01-29T06:37:52;12.10;;;5.37;;
8337;SDS011;4206;48.634;9.516;2023-01-29T06:40:18;9.23;;;5.27;;
8337;SDS011;4206;48.634;9.516;2023-01-29T06:42:45;6.63;;;4.73;;
8337;SDS011;4206;48.634;9.516;2023-01-29T06:45:11;6.77;;;4.77;;
8337;SDS011;4206;48.634;9.516;2023-01-29T06:47:36;6.23;;;4.83;;
8337;SDS011;4206;48.634;9.516;2023-01-29T06:50:03;7.57;;;4.73;;
8337;SDS011;4206;48.634;9.516;2023-01-29T06:52:29;7.93;;;5.10;;
8337;SDS011;4206;48.634;9.516;2023-01-29T06:54:55;5.60;;;4.20;;
8337;SDS011;4206;48.634;9.516;2023-01-29T06:57:21;6.10;;;4.40;;
8337;SDS011;4206;48.634;9.516;2023-01-29T06:59:47;8.00;;;5.37;;
8337;SDS011;4206;48.634;9.516;2023-01-29T07:02:14;6.43;;;4.50;;
8337;SDS011;4206;48.634;9.516;2023-01-29T07:04:40;10.80;;;5.83;;
8337;SDS011;4206;48.634;9.516;2023-01-29T07:07:06;7.20;;;4.53;;
8337;SDS011;4206;48.634;9.516;2023-01-29T07:09:39;5.97;;;4.67;;
8337;SDS011;4206;48.634;9.516;2023-01-29T07:12:05;5.27;;;4.10;;
8337;SDS011;4206;48.634;9.516;2023-01-29T07:14:31;6.40;;;4.20;;
8337;SDS011;4206;48.634;9.516;2023-01-29T07:16:57;6.53;;;4.47;;
8337;SDS011;4206;48.634;9.516;2023-01-29T07:19:23;8.13;;;4.53;;
8337;SDS011;4206;48.634;9.516;2023-01-29T07:21:49;5.83;;;4.40;;
8337;SDS011;4206;48.634;9.516;2023-01-29T07:24:15;7.10;;;4.07;;
8337;SDS011;4206;48.634;9.516;2023-01-29T07:26:41;6.60;;;4.50;;
8337;SDS011;4206;48.634;9.516;2023-01-29T07:29:07;6.13;;;4.60;;
8337;SDS011;4206;48.634;9.516;2023-01-29T07:31:33;5.37;;;4.10;;
8337;SDS011;4206;48.634;9.516;2023-01-29T07:33:58;7.10;;;5.00;;
8337;SDS011;4206;48.634;9.516;2023-01-29T07:36:24;7.00;;;4.90;;
8337;SDS011;4206;48.634;9.516;2023-01-29T07:38:51;5.33;;;4.13;;
8337;SDS011;4206;48.634;9.516;2023-01-29T07:41:17;6.27;;;4.13;;
8337;SDS011;4206;48.634;9.516;2023-01-29T07:43:42;5.13;;;3.60;;
8337;SDS011;4206;48.634;9.516;2023-01-29T07:46:08;7.50;;;4.53;;
8337;SDS011;4206;48.634;9.516;2023-01-29T07:48:33;6.07;;;4.67;;
8337;SDS011;4206;48.634;9.516;2023-01-29T07:50:59;8.13;;;4.33;;
8337;SDS011;4206;48.634;9.516;2023-01-29T07:53:26;6.97;;;3.83;;
8337;SDS011;4206;48.634;9.516;2023-01-29T07:55:52;5.10;;;3.97;;
8337;SDS011;4206;48.634;9.516;2023-01-29T07:58:18;6.70;;;4.30;;
8337;SDS011;4206;48.634;9.516;2023-01-29T08:00:44;4.93;;;4.23;;
8337;SDS011;4206;48.634;9.516;2023-01-29T08:03:11;5.43;;;3.30;;
8337;SDS011;4206;48.634;9.516;2023-01-29T08:05:38;8.43;;;3.53;;
8337;SDS011;4206;48.634;9.516;2023-01-29T08:08:03;6.07;;;3.60;;
8337;SDS011;4206;48.634;9.516;2023-01-29T08:10:29;6.67;;;3.23;;
8337;SDS011;4206;48.634;9.516;2023-01-29T08:12:56;4.33;;;3.20;;
8337;SDS011;4206;48.634;9.516;2023-01-29T08:15:23;3.90;;;3.50;;
8337;SDS011;4206;48.634;9.516;2023-01-29T08:17:50;6.80;;;4.70;;
8337;SDS011;4206;48.634;9.516;2023-01-29T08:20:16;16.13;;;8.03;;
8337;SDS011;4206;48.634;9.516;2023-01-29T08:22:42;6.13;;;3.83;;
8337;SDS011;4206;48.634;9.516;2023-01-29T08:25:08;5.93;;;3.70;;
8337;SDS011;4206;48.634;9.516;2023-01-29T08:27:34;4.43;;;3.30;;
8337;SDS011;4206;48.634;9.516;2023-01-29T08:30:00;4.13;;;3.00;;
8337;SDS011;4206;48.634;9.516;2023-01-29T08:32:25;4.53;;;3.60;;
8337;SDS011;4206;48.634;9.516;2023-01-29T08:34:51;4.50;;;3.60;;
8337;SDS011;4206;48.634;9.516;2023-01-29T08:37:17;5.00;;;3.70;;
8337;SDS011;4206;48.634;9.516;2023-01-29T08:39:42;5.40;;;3.20;;
8337;SDS011;4206;48.634;9.516;2023-01-29T08:42:08;6.53;;;3.50;;
8337;SDS011;4206;48.634;9.516;2023-01-29T08:44:34;3.80;;;3.00;;
8337;SDS011;4206;48.634;9.516;2023-01-29T08:46:59;4.43;;;3.20;;
8337;SDS011;4206;48.634;9.516;2023-01-29T08:49:25;3.57;;;2.40;;
8337;SDS011;4206;48.634;9.516;2023-01-29T08:51:51;3.50;;;2.67;;
8337;SDS011;4206;48.634;9.516;2023-01-29T08:54:17;3.40;;;2.83;;
8337;SDS011;4206;48.634;9.516;2023-01-29T08:56:43;4.43;;;3.07;;
8337;SDS011;4206;48.634;9.516;2023-01-29T08:59:09;5.27;;;2.73;;
8337;SDS011;4206;48.634;9.516;2023-01-29T09:01:35;3.67;;;2.47;;
8337;SDS011;4206;48.634;9.516;2023-01-29T09:04:00;7.23;;;3.83;;
8337;SDS011;4206;48.634;9.516;2023-01-29T09:06:26;3.37;;;2.87;;
8337;SDS011;4206;48.634;9.516;2023-01-29T09:08:52;4.27;;;3.23;;
8337;SDS011;4206;48.634;9.516;2023-01-29T09:11:18;7.30;;;3.00;;
8337;SDS011;4206;48.634;9.516;2023-01-29T09:13:43;4.17;;;3.30;;
8337;SDS011;4206;48.634;9.516;2023-01-29T09:16:09;3.23;;;2.67;;
8337;SDS011;4206;48.634;9.516;2023-01-29T09:18:35;5.57;;;3.97;;
8337;SDS011;4206;48.634;9.516;2023-01-29T09:21:00;7.97;;;4.90;;
8337;SDS011;4206;48.634;9.516;2023-01-29T09:23:27;4.60;;;3.70;;
8337;SDS011;4206;48.634;9.516;2023-01-29T09:25:54;3.30;;;2.60;;
8337;SDS011;4206;48.634;9.516;2023-01-29T09:28:20;4.23;;;2.80;;
8337;SDS011;4206;48.634;9.516;2023-01-29T09:30:45;4.43;;;3.20;;
8337;SDS011;4206;48.634;9.516;2023-01-29T09:33:11;3.53;;;2.80;;
8337;SDS011;4206;48.634;9.516;2023-01-29T09:35:39;6.10;;;2.70;;
8337;SDS011;4206;48.634;9.516;2023-01-29T09:38:06;3.43;;;2.50;;
8337;SDS011;4206;48.634;9.516;2023-01-29T09:51:49;4.63;;;3.20;;
8337;SDS011;4206;48.634;9.516;2023-01-29T09:54:26;5.50;;;3.40;;
8337;SDS011;4206;48.634;9.516;2023-01-29T09:56:58;3.90;;;3.00;;
8337;SDS011;4206;48.634;9.516;2023-01-29T09:59:25;6.40;;;4.63;;
8337;SDS011;4206;48.634;9.516;2023-01-29T10:20:02;5.47;;;3.07;;
8337;SDS011;4206;48.634;9.516;2023-01-29T10:25:12;6.73;;;4.00;;
8337;SDS011;4206;48.634;9.516;2023-01-29T10:27:43;5.07;;;3.40;;
8337;SDS011;4206;48.634;9.516;2023-01-29T10:32:50;3.13;;;2.47;;
8337;SDS011;4206;48.634;9.516;2023-01-29T10:37:48;4.40;;;3.10;;
8337;SDS011;4206;48.634;9.516;2023-01-29T10:40:17;5.33;;;2.90;;
8337;SDS011;4206;48.634;9.516;2023-01-29T10:42:48;6.70;;;4.40;;
8337;SDS011;4206;48.634;9.516;2023-01-29T10:45:26;6.57;;;3.40;;
8337;SDS011;4206;48.634;9.516;2023-01-29T10:50:50;3.80;;;2.33;;
8337;SDS011;4206;48.634;9.516;2023-01-29T10:59:03;3.80;;;2.70;;
8337;SDS011;4206;48.634;9.516;2023-01-29T11:01:36;8.50;;;3.10;;
8337;SDS011;4206;48.634;9.516;2023-01-29T11:04:03;3.17;;;2.77;;
8337;SDS011;4206;48.634;9.516;2023-01-29T11:06:31;4.17;;;2.70;;
8337;SDS011;4206;48.634;9.516;2023-01-29T11:09:03;3.13;;;2.83;;
8337;SDS011;4206;48.634;9.516;2023-01-29T11:11:38;3.60;;;3.30;;
8337;SDS011;4206;48.634;9.516;2023-01-29T11:14:15;3.37;;;2.90;;
8337;SDS011;4206;48.634;9.516;2023-01-29T11:16:46;4.50;;;2.70;;
8337;SDS011;4206;48.634;9.516;2023-01-29T11:19:13;4.13;;;3.00;;
8337;SDS011;4206;48.634;9.516;2023-01-29T11:24:21;3.73;;;2.90;;
8337;SDS011;4206;48.634;9.516;2023-01-29T11:26:47;4.40;;;3.37;;
8337;SDS011;4206;48.634;9.516;2023-01-29T11:29:31;3.90;;;3.13;;
8337;SDS011;4206;48.634;9.516;2023-01-29T11:32:04;4.10;;;3.13;;
8337;SDS011;4206;48.634;9.516;2023-01-29T11:34:32;6.50;;;3.73;;
8337;SDS011;4206;48.634;9.516;2023-01-29T11:39:26;5.77;;;3.60;;
8337;SDS011;4206;48.634;9.516;2023-01-29T11:41:58;7.50;;;3.47;;
8337;SDS011;4206;48.634;9.516;2023-01-29T11:49:52;4.73;;;3.37;;
8337;SDS011;4206;48.634;9.516;2023-01-29T11:52:20;5.17;;;3.57;;
8337;SDS011;4206;48.634;9.516;2023-01-29T11:54:49;5.33;;;3.50;;
8337;SDS011;4206;48.634;9.516;2023-01-29T11:59:57;6.43;;;3.60;;
8337;SDS011;4206;48.634;9.516;2023-01-29T12:02:28;3.93;;;2.93;;
8337;SDS011;4206;48.634;9.516;2023-01-29T12:04:59;4.93;;;3.53;;
8337;SDS011;4206;48.634;9.516;2023-01-29T12:07:28;5.27;;;3.27;;
8337;SDS011;4206;48.634;9.516;2023-01-29T12:09:56;4.97;;;3.10;;
8337;SDS011;4206;48.634;9.516;2023-01-29T12:12:26;4.30;;;2.80;;
8337;SDS011;4206;48.634;9.516;2023-01-29T12:17:52;4.37;;;3.20;;
8337;SDS011;4206;48.634;9.516;2023-01-29T12:20:37;4.00;;;2.93;;
8337;SDS011;4206;48.634;9.516;2023-01-29T12:33:54;5.23;;;3.90;;
8337;SDS011;4206;48.634;9.516;2023-01-29T12:36:23;3.67;;;3.33;;
8337;SDS011;4206;48.634;9.516;2023-01-29T12:38:54;5.30;;;2.90;;
8337;SDS011;4206;48.634;9.516;2023-01-29T12:44:18;7.30;;;4.60;;
8337;SDS011;4206;48.634;9.516;2023-01-29T12:46:52;12.90;;;7.33;;
8337;SDS011;4206;48.634;9.516;2023-01-29T12:49:22;7.20;;;4.87;;
8337;SDS011;4206;48.634;9.516;2023-01-29T12:54:27;10.20;;;7.30;;
8337;SDS011;4206;48.634;9.516;2023-01-29T12:57:01;6.93;;;3.50;;
8337;SDS011;4206;48.634;9.516;2023-01-29T12:59:34;4.40;;;2.90;;
8337;SDS011;4206;48.634;9.516;2023-01-29T13:04:44;3.70;;;3.37;;
8337;SDS011;4206;48.634;9.516;2023-01-29T13:07:29;4.37;;;3.13;;
8337;SDS011;4206;48.634;9.516;2023-01-29T13:10:00;4.57;;;3.00;;
8337;SDS011;4206;48.634;9.516;2023-01-29T13:12:31;3.97;;;3.57;;
8337;SDS011;4206;48.634;9.516;2023-01-29T13:15:02;2.90;;;2.60;;
8337;SDS011;4206;48.634;9.516;2023-01-29T13:17:32;4.70;;;3.27;;
8337;SDS011;4206;48.634;9.516;2023-01-29T13:20:04;4.10;;;3.60;;
8337;SDS011;4206;48.634;9.516;2023-01-29T13:22:38;4.90;;;3.30;;
8337;SDS011;4206;48.634;9.516;2023-01-29T13:25:05;3.40;;;3.10;;
8337;SDS011;4206;48.634;9.516;2023-01-29T13:27:36;4.67;;;3.70;;
8337;SDS011;4206;48.634;9.516;2023-01-29T13:30:03;4.23;;;3.60;;
8337;SDS011;4206;48.634;9.516;2023-01-29T13:32:30;7.40;;;3.90;;
8337;SDS011;4206;48.634;9.516;2023-01-29T13:34:58;5.07;;;3.37;;
8337;SDS011;4206;48.634;9.516;2023-01-29T13:37:36;6.93;;;4.53;;
8337;SDS011;4206;48.634;9.516;2023-01-29T13:40:18;6.53;;;3.67;;
8337;SDS011;4206;48.634;9.516;2023-01-29T13:42:45;4.87;;;3.60;;
8337;SDS011;4206;48.634;9.516;2023-01-29T13:45:34;4.10;;;3.20;;
8337;SDS011;4206;48.634;9.516;2023-01-29T13:48:08;7.63;;;4.13;;
8337;SDS011;4206;48.634;9.516;2023-01-29T13:50:42;7.50;;;3.43;;
8337;SDS011;4206;48.634;9.516;2023-01-29T13:55:53;8.63;;;3.30;;
8337;SDS011;4206;48.634;9.516;2023-01-29T14:01:07;4.77;;;3.60;;
8337;SDS011;4206;48.634;9.516;2023-01-29T14:03:40;5.33;;;4.10;;
8337;SDS011;4206;48.634;9.516;2023-01-29T14:06:07;5.10;;;3.90;;
8337;SDS011;4206;48.634;9.516;2023-01-29T14:13:40;8.90;;;4.80;;
8337;SDS011;4206;48.634;9.516;2023-01-29T14:18:34;5.70;;;4.17;;
8337;SDS011;4206;48.634;9.516;2023-01-29T14:23:46;6.00;;;4.17;;
8337;SDS011;4206;48.634;9.516;2023-01-29T14:26:19;6.00;;;4.40;;
8337;SDS011;4206;48.634;9.516;2023-01-29T14:34:14;6.50;;;4.10;;
8337;SDS011;4206;48.634;9.516;2023-01-29T14:36:44;6.00;;;4.47;;
8337;SDS011;4206;48.634;9.516;2023-01-29T14:41:53;5.17;;;4.00;;
8337;SDS011;4206;48.634;9.516;2023-01-29T14:47:00;9.67;;;5.10;;
8337;SDS011;4206;48.634;9.516;2023-01-29T14:52:09;4.90;;;3.80;;
8337;SDS011;4206;48.634;9.516;2023-01-29T14:54:36;6.13;;;4.40;;
8337;SDS011;4206;48.634;9.516;2023-01-29T14:57:04;5.73;;;4.33;;
8337;SDS011;4206;48.634;9.516;2023-01-29T14:59:37;7.50;;;4.37;;
8337;SDS011;4206;48.634;9.516;2023-01-29T15:04:53;8.00;;;3.93;;
8337;SDS011;4206;48.634;9.516;2023-01-29T15:07:25;6.60;;;4.43;;
8337;SDS011;4206;48.634;9.516;2023-01-29T15:09:57;6.93;;;4.30;;
8337;SDS011;4206;48.634;9.516;2023-01-29T15:20:25;7.47;;;4.70;;
8337;SDS011;4206;48.634;9.516;2023-01-29T15:22:51;5.40;;;4.20;;
8337;SDS011;4206;48.634;9.516;2023-01-29T15:25:17;8.80;;;5.23;;
8337;SDS011;4206;48.634;9.516;2023-01-29T15:27:45;9.50;;;5.13;;
8337;SDS011;4206;48.634;9.516;2023-01-29T15:30:21;6.03;;;4.50;;
8337;SDS011;4206;48.634;9.516;2023-01-29T15:32:47;6.20;;;4.33;;
8337;SDS011;4206;48.634;9.516;2023-01-29T15:37:39;7.97;;;5.20;;
8337;SDS011;4206;48.634;9.516;2023-01-29T15:40:11;5.33;;;3.90;;
8337;SDS011;4206;48.634;9.516;2023-01-29T15:42:41;12.63;;;5.33;;
8337;SDS011;4206;48.634;9.516;2023-01-29T15:47:52;10.60;;;6.33;;
8337;SDS011;4206;48.634;9.516;2023-01-29T15:50:19;9.23;;;5.67;;
8337;SDS011;4206;48.634;9.516;2023-01-29T15:52:47;7.37;;;5.17;;
8337;SDS011;4206;48.634;9.516;2023-01-29T15:55:14;6.80;;;4.50;;
8337;SDS011;4206;48.634;9.516;2023-01-29T15:57:40;9.53;;;5.10;;
8337;SDS011;4206;48.634;9.516;2023-01-29T16:00:16;7.67;;;5.13;;
8337;SDS011;4206;48.634;9.516;2023-01-29T16:02:45;7.87;;;5.37;;
8337;SDS011;4206;48.634;9.516;2023-01-29T16:05:15;10.40;;;5.43;;
8337;SDS011;4206;48.634;9.516;2023-01-29T16:07:42;9.40;;;4.63;;
8337;SDS011;4206;48.634;9.516;2023-01-29T16:10:13;10.20;;;6.00;;
8337;SDS011;4206;48.634;9.516;2023-01-29T16:12:40;11.67;;;6.50;;
8337;SDS011;4206;48.634;9.516;2023-01-29T16:15:09;8.87;;;6.03;;
8337;SDS011;4206;48.634;9.516;2023-01-29T16:17:39;6.10;;;4.97;;
8337;SDS011;4206;48.634;9.516;2023-01-29T16:20:06;9.10;;;6.10;;
8337;SDS011;4206;48.634;9.516;2023-01-29T16:22:44;8.33;;;6.00;;
8337;SDS011;4206;48.634;9.516;2023-01-29T16:25:11;13.50;;;5.20;;
8337;SDS011;4206;48.634;9.516;2023-01-29T16:27:39;10.10;;;6.40;;
8337;SDS011;4206;48.634;9.516;2023-01-29T16:30:08;8.10;;;5.90;;
8337;SDS011;4206;48.634;9.516;2023-01-29T16:32:34;9.30;;;5.93;;
8337;SDS011;4206;48.634;9.516;2023-01-29T16:35:00;16.67;;;7.80;;
8337;SDS011;4206;48.634;9.516;2023-01-29T16:37:29;12.27;;;7.77;;
8337;SDS011;4206;48.634;9.516;2023-01-29T16:39:55;18.83;;;10.30;;
8337;SDS011;4206;48.634;9.516;2023-01-29T16:42:23;14.97;;;8.40;;
8337;SDS011;4206;48.634;9.516;2023-01-29T16:44:57;19.03;;;8.27;;
8337;SDS011;4206;48.634;9.516;2023-01-29T16:47:32;17.10;;;7.57;;
8337;SDS011;4206;48.634;9.516;2023-01-29T16:52:33;12.17;;;7.70;;
8337;SDS011;4206;48.634;9.516;2023-01-29T16:55:00;14.43;;;6.87;;
8337;SDS011;4206;48.634;9.516;2023-01-29T16:57:28;16.83;;;8.70;;
8337;SDS011;4206;48.634;9.516;2023-01-29T16:59:56;15.67;;;8.10;;
8337;SDS011;4206;48.634;9.516;2023-01-29T17:02:25;18.40;;;9.37;;
8337;SDS011;4206;48.634;9.516;2023-01-29T17:04:53;14.67;;;8.70;;
8337;SDS011;4206;48.634;9.516;2023-01-29T17:07:21;12.00;;;7.03;;
8337;SDS011;4206;48.634;9.516;2023-01-29T17:09:48;17.10;;;8.37;;
8337;SDS011;4206;48.634;9.516;2023-01-29T17:12:17;18.67;;;9.40;;
8337;SDS011;4206;48.634;9.516;2023-01-29T17:14:52;29.53;;;12.60;;
8337;SDS011;4206;48.634;9.516;2023-01-29T17:17:18;26.70;;;13.27;;
8337;SDS011;4206;48.634;9.516;2023-01-29T17:19:44;17.53;;;10.87;;
8337;SDS011;4206;48.634;9.516;2023-01-29T17:22:10;17.50;;;10.47;;
8337;SDS011;4206;48.634;9.516;2023-01-29T17:24:41;18.37;;;10.37;;
8337;SDS011;4206;48.634;9.516;2023-01-29T17:27:09;14.30;;;9.30;;
8337;SDS011;4206;48.634;9.516;2023-01-29T17:29:38;20.60;;;10.73;;
8337;SDS011;4206;48.634;9.516;2023-01-29T17:32:04;15.80;;;9.70;;
8337;SDS011;4206;48.634;9.516;2023-01-29T17:34:30;19.17;;;9.63;;
8337;SDS011;4206;48.634;9.516;2023-01-29T17:36:56;19.17;;;9.60;;
8337;SDS011;4206;48.634;9.516;2023-01-29T17:39:23;18.43;;;10.37;;
8337;SDS011;4206;48.634;9.516;2023-01-29T17:41:51;15.53;;;9.23;;
8337;SDS011;4206;48.634;9.516;2023-01-29T17:44:17;17.00;;;10.10;;
8337;SDS011;4206;48.634;9.516;2023-01-29T17:46:43;21.60;;;10.27;;
8337;SDS011;4206;48.634;9.516;2023-01-29T17:51:39;20.43;;;10.40;;
8337;SDS011;4206;48.634;9.516;2023-01-29T17:54:05;15.57;;;9.60;;
8337;SDS011;4206;48.634;9.516;2023-01-29T17:56:31;18.23;;;9.90;;
8337;SDS011;4206;48.634;9.516;2023-01-29T17:58:57;16.67;;;11.00;;
8337;SDS011;4206;48.634;9.516;2023-01-29T18:01:23;16.00;;;8.93;;
8337;SDS011;4206;48.634;9.516;2023-01-29T18:03:49;17.93;;;9.27;;
8337;SDS011;4206;48.634;9.516;2023-01-29T18:06:19;16.07;;;9.40;;
8337;SDS011;4206;48.634;9.516;2023-01-29T18:08:51;15.33;;;8.70;;
8337;SDS011;4206;48.634;9.516;2023-01-29T18:11:16;17.23;;;9.57;;
8337;SDS011;4206;48.634;9.516;2023-01-29T18:13:42;19.13;;;10.63;;
8337;SDS011;4206;48.634;9.516;2023-01-29T18:16:08;16.27;;;9.33;;
8337;SDS011;4206;48.634;9.516;2023-01-29T18:18:33;15.23;;;9.97;;
8337;SDS011;4206;48.634;9.516;2023-01-29T18:20:59;19.57;;;10.60;;
8337;SDS011;4206;48.634;9.516;2023-01-29T18:23:25;20.87;;;10.37;;
8337;SDS011;4206;48.634;9.516;2023-01-29T18:25:51;15.90;;;10.57;;
8337;SDS011;4206;48.634;9.516;2023-01-29T18:28:18;18.70;;;10.80;;
8337;SDS011;4206;48.634;9.516;2023-01-29T18:30:44;44.67;;;23.53;;
8337;SDS011;4206;48.634;9.516;2023-01-29T18:33:11;32.50;;;17.30;;
8337;SDS011;4206;48.634;9.516;2023-01-29T18:35:37;30.00;;;14.27;;